sensor_id;sensor_type;location;lat;lon;timestamp;temperature;humidity
16479;DHT22;8350;52.316;10.530;2023-08-07T00:01:24;15.70;99.90
16479;DHT22;8350;52.316;10.530;2023-08-07T00:03:51;15.70;99.90
16479;DHT22;8350;52.316;10.530;2023-08-07T00:06:17;15.60;99.90
16479;DHT22;8350;52.316;10.530;2023-08-07T00:08:48;15.60;99.90
16479;DHT22;8350;52.316;10.530;2023-08-07T00:11:15;15.60;99.90
16479;DHT22;8350;52.316;10.530;2023-08-07T00:13:44;15.60;99.90
16479;DHT22;8350;52.316;10.530;2023-08-07T00:16:12;15.60;99.90
16479;DHT22;8350;52.316;10.530;2023-08-07T00:18:39;15.60;99.90
16479;DHT22;8350;52.316;10.530;2023-08-07T00:21:06;15.60;99.90
16479;DHT22;8350;52.316;10.530;2023-08-07T00:23:34;15.60;99.90
16479;DHT22;8350;52.316;10.530;2023-08-07T00:26:01;15.60;99.90
16479;DHT22;8350;52.316;10.530;2023-08-07T00:28:34;15.50;99.90
16479;DHT22;8350;52.316;10.530;2023-08-07T00:31:01;15.50;99.90
16479;DHT22;8350;52.316;10.530;2023-08-07T00:33:29;15.50;99.90
16479;DHT22;8350;52.316;10.530;2023-08-07T00:35:56;15.50;99.90
16479;DHT22;8350;52.316;10.530;2023-08-07T00:38:23;15.50;99.90
16479;DHT22;8350;52.316;10.530;2023-08-07T00:40:50;15.50;99.90
16479;DHT22;8350;52.316;10.530;2023-08-07T00:43:18;15.50;99.90
16479;DHT22;8350;52.316;10.530;2023-08-07T00:45:48;15.50;99.90
16479;DHT22;8350;52.316;10.530;2023-08-07T00:48:22;15.50;99.90
16479;DHT22;8350;52.316;10.530;2023-08-07T00:50:51;15.50;99.90
16479;DHT22;8350;52.316;10.530;2023-08-07T00:53:24;15.60;99.90
16479;DHT22;8350;52.316;10.530;2023-08-07T00:55:51;15.50;99.90
16479;DHT22;8350;52.316;10.530;2023-08-07T00:58:24;15.40;99.90
16479;DHT22;8350;52.316;10.530;2023-08-07T01:00:51;15.40;99.90
16479;DHT22;8350;52.316;10.530;2023-08-07T01:03:18;15.20;99.90
16479;DHT22;8350;52.316;10.530;2023-08-07T01:05:45;15.20;99.90
16479;DHT22;8350;52.316;10.530;2023-08-07T01:08:17;15.00;99.90
16479;DHT22;8350;52.316;10.530;2023-08-07T01:11:04;14.90;99.90
16479;DHT22;8350;52.316;10.530;2023-08-07T01:13:40;14.80;99.90
16479;DHT22;8350;52.316;10.530;2023-08-07T01:16:12;14.80;99.90
16479;DHT22;8350;52.316;10.530;2023-08-07T01:18:40;14.70;99.90
16479;DHT22;8350;52.316;10.530;2023-08-07T01:21:17;14.60;99.90
16479;DHT22;8350;52.316;10.530;2023-08-07T01:24:00;14.60;99.90
16479;DHT22;8350;52.316;10.530;2023-08-07T01:26:29;14.60;99.90
16479;DHT22;8350;52.316;10.530;2023-08-07T01:29:02;14.50;99.90
16479;DHT22;8350;52.316;10.530;2023-08-07T01:31:33;14.60;99.90
16479;DHT22;8350;52.316;10.530;2023-08-07T01:34:05;14.50;99.90
16479;DHT22;8350;52.316;10.530;2023-08-07T01:36:34;14.50;99.90
16479;DHT22;8350;52.316;10.530;2023-08-07T01:39:03;14.50;99.90
16479;DHT22;8350;52.316;10.530;2023-08-07T01:41:36;14.50;99.90
16479;DHT22;8350;52.316;10.530;2023-08-07T01:44:03;14.60;99.90
16479;DHT22;8350;52.316;10.530;2023-08-07T01:46:30;14.60;99.90
16479;DHT22;8350;52.316;10.530;2023-08-07T01:48:57;14.60;99.90
16479;DHT22;8350;52.316;10.530;2023-08-07T01:51:24;14.60;99.90
16479;DHT22;8350;52.316;10.530;2023-08-07T01:53:51;14.60;99.90
16479;DHT22;8350;52.316;10.530;2023-08-07T01:56:20;14.70;99.90
16479;DHT22;8350;52.316;10.530;2023-08-07T01:58:47;14.70;99.90
16479;DHT22;8350;52.316;10.530;2023-08-07T02:01:16;14.70;99.90
16479;DHT22;8350;52.316;10.530;2023-08-07T02:03:52;14.70;99.90
16479;DHT22;8350;52.316;10.530;2023-08-07T02:06:19;14.80;99.90
16479;DHT22;8350;52.316;10.530;2023-08-07T02:08:46;14.80;99.90
16479;DHT22;8350;52.316;10.530;2023-08-07T02:11:21;14.80;99.90
16479;DHT22;8350;52.316;10.530;2023-08-07T02:13:56;14.80;99.90
16479;DHT22;8350;52.316;10.530;2023-08-07T02:16:40;14.80;99.90
16479;DHT22;8350;52.316;10.530;2023-08-07T02:19:07;14.90;99.90
16479;DHT22;8350;52.316;10.530;2023-08-07T02:21:34;14.90;99.90
16479;DHT22;8350;52.316;10.530;2023-08-07T02:24:01;14.90;99.90
16479;DHT22;8350;52.316;10.530;2023-08-07T02:26:29;14.90;99.90
16479;DHT22;8350;52.316;10.530;2023-08-07T02:28:56;14.90;99.90
16479;DHT22;8350;52.316;10.530;2023-08-07T02:31:23;14.90;99.90
16479;DHT22;8350;52.316;10.530;2023-08-07T02:33:50;14.90;99.90
16479;DHT22;8350;52.316;10.530;2023-08-07T02:36:17;14.90;99.90
16479;DHT22;8350;52.316;10.530;2023-08-07T02:38:44;14.80;99.90
16479;DHT22;8350;52.316;10.530;2023-08-07T02:41:11;14.90;99.90
16479;DHT22;8350;52.316;10.530;2023-08-07T02:43:40;14.90;99.90
16479;DHT22;8350;52.316;10.530;2023-08-07T02:46:07;14.90;99.90
16479;DHT22;8350;52.316;10.530;2023-08-07T02:48:34;14.90;99.90
16479;DHT22;8350;52.316;10.530;2023-08-07T02:51:01;14.90;99.90
16479;DHT22;8350;52.316;10.530;2023-08-07T02:53:27;14.90;99.90
16479;DHT22;8350;52.316;10.530;2023-08-07T02:55:54;15.00;99.90
16479;DHT22;8350;52.316;10.530;2023-08-07T02:58:21;14.90;99.90
16479;DHT22;8350;52.316;10.530;2023-08-07T03:00:50;14.90;99.90
16479;DHT22;8350;52.316;10.530;2023-08-07T03:03:17;14.90;99.90
16479;DHT22;8350;52.316;10.530;2023-08-07T03:05:48;14.90;99.90
16479;DHT22;8350;52.316;10.530;2023-08-07T03:08:16;14.90;99.90
16479;DHT22;8350;52.316;10.530;2023-08-07T03:10:50;14.90;99.90
16479;DHT22;8350;52.316;10.530;2023-08-07T03:13:17;14.90;99.90
16479;DHT22;8350;52.316;10.530;2023-08-07T03:15:44;14.90;99.90
16479;DHT22;8350;52.316;10.530;2023-08-07T03:18:12;14.90;99.90
16479;DHT22;8350;52.316;10.530;2023-08-07T03:20:39;14.90;99.90
16479;DHT22;8350;52.316;10.530;2023-08-07T03:23:07;14.90;99.90
16479;DHT22;8350;52.316;10.530;2023-08-07T03:25:36;14.90;99.90
16479;DHT22;8350;52.316;10.530;2023-08-07T03:28:03;14.90;99.90
16479;DHT22;8350;52.316;10.530;2023-08-07T03:30:30;14.90;99.90
16479;DHT22;8350;52.316;10.530;2023-08-07T03:32:57;14.90;99.90
16479;DHT22;8350;52.316;10.530;2023-08-07T03:35:28;14.90;99.90
16479;DHT22;8350;52.316;10.530;2023-08-07T03:37:55;14.90;99.90
16479;DHT22;8350;52.316;10.530;2023-08-07T03:40:21;14.90;99.90
16479;DHT22;8350;52.316;10.530;2023-08-07T03:42:48;14.80;99.90
16479;DHT22;8350;52.316;10.530;2023-08-07T03:45:16;14.80;99.90
16479;DHT22;8350;52.316;10.530;2023-08-07T03:47:51;14.80;99.90
16479;DHT22;8350;52.316;10.530;2023-08-07T03:50:18;14.80;99.90
16479;DHT22;8350;52.316;10.530;2023-08-07T03:52:48;14.80;99.90
16479;DHT22;8350;52.316;10.530;2023-08-07T03:55:16;14.80;99.90
16479;DHT22;8350;52.316;10.530;2023-08-07T03:57:44;14.80;99.90
16479;DHT22;8350;52.316;10.530;2023-08-07T04:00:12;14.70;99.90
16479;DHT22;8350;52.316;10.530;2023-08-07T04:02:39;14.80;99.90
16479;DHT22;8350;52.316;10.530;2023-08-07T04:05:06;14.70;99.90
16479;DHT22;8350;52.316;10.530;2023-08-07T04:07:36;14.70;99.90
16479;DHT22;8350;52.316;10.530;2023-08-07T04:10:08;14.80;99.90
16479;DHT22;8350;52.316;10.530;2023-08-07T04:12:35;14.80;99.90
16479;DHT22;8350;52.316;10.530;2023-08-07T04:15:03;14.80;99.90
16479;DHT22;8350;52.316;10.530;2023-08-07T04:17:30;14.80;99.90
16479;DHT22;8350;52.316;10.530;2023-08-07T04:19:57;14.80;99.90
16479;DHT22;8350;52.316;10.530;2023-08-07T04:22:24;14.80;99.90
16479;DHT22;8350;52.316;10.530;2023-08-07T04:24:51;14.80;99.90
16479;DHT22;8350;52.316;10.530;2023-08-07T04:27:19;14.80;99.90
16479;DHT22;8350;52.316;10.530;2023-08-07T04:29:46;14.80;99.90
16479;DHT22;8350;52.316;10.530;2023-08-07T04:32:13;14.80;99.90
16479;DHT22;8350;52.316;10.530;2023-08-07T04:34:40;14.80;99.90
16479;DHT22;8350;52.316;10.530;2023-08-07T04:37:07;14.90;99.90
16479;DHT22;8350;52.316;10.530;2023-08-07T04:39:34;14.90;99.90
16479;DHT22;8350;52.316;10.530;2023-08-07T04:42:02;14.90;99.90
16479;DHT22;8350;52.316;10.530;2023-08-07T04:44:31;14.90;99.90
16479;DHT22;8350;52.316;10.530;2023-08-07T04:46:58;14.90;99.90
16479;DHT22;8350;52.316;10.530;2023-08-07T04:49:25;14.90;99.90
16479;DHT22;8350;52.316;10.530;2023-08-07T04:51:52;14.90;99.90
16479;DHT22;8350;52.316;10.530;2023-08-07T04:54:19;14.90;99.90
16479;DHT22;8350;52.316;10.530;2023-08-07T04:56:46;14.90;99.90
16479;DHT22;8350;52.316;10.530;2023-08-07T04:59:13;14.90;99.90
16479;DHT22;8350;52.316;10.530;2023-08-07T05:01:41;15.00;99.90
16479;DHT22;8350;52.316;10.530;2023-08-07T05:04:08;14.90;99.90
16479;DHT22;8350;52.316;10.530;2023-08-07T05:06:41;14.90;99.90
16479;DHT22;8350;52.316;10.530;2023-08-07T05:09:09;14.90;99.90
16479;DHT22;8350;52.316;10.530;2023-08-07T05:11:36;14.90;99.90
16479;DHT22;8350;52.316;10.530;2023-08-07T05:14:02;15.00;99.90
16479;DHT22;8350;52.316;10.530;2023-08-07T05:16:41;15.00;99.90
16479;DHT22;8350;52.316;10.530;2023-08-07T05:19:08;15.00;99.90
16479;DHT22;8350;52.316;10.530;2023-08-07T05:21:35;15.00;99.90
16479;DHT22;8350;52.316;10.530;2023-08-07T05:24:02;15.00;99.90
16479;DHT22;8350;52.316;10.530;2023-08-07T05:26:30;15.10;99.90
16479;DHT22;8350;52.316;10.530;2023-08-07T05:28:57;15.10;99.90
16479;DHT22;8350;52.316;10.530;2023-08-07T05:31:24;15.10;99.90
16479;DHT22;8350;52.316;10.530;2023-08-07T05:33:53;15.20;99.90
16479;DHT22;8350;52.316;10.530;2023-08-07T05:36:20;15.10;99.90
16479;DHT22;8350;52.316;10.530;2023-08-07T05:38:47;15.10;99.90
16479;DHT22;8350;52.316;10.530;2023-08-07T05:41:19;15.20;99.90
16479;DHT22;8350;52.316;10.530;2023-08-07T05:43:46;15.20;99.90
16479;DHT22;8350;52.316;10.530;2023-08-07T05:46:13;15.20;99.90
16479;DHT22;8350;52.316;10.530;2023-08-07T05:48:40;15.30;99.90
16479;DHT22;8350;52.316;10.530;2023-08-07T05:51:08;15.30;99.90
16479;DHT22;8350;52.316;10.530;2023-08-07T05:53:35;15.30;99.90
16479;DHT22;8350;52.316;10.530;2023-08-07T05:56:03;15.30;99.90
16479;DHT22;8350;52.316;10.530;2023-08-07T05:58:30;15.30;99.90
16479;DHT22;8350;52.316;10.530;2023-08-07T06:00:57;15.20;99.90
16479;DHT22;8350;52.316;10.530;2023-08-07T06:03:24;15.10;99.90
16479;DHT22;8350;52.316;10.530;2023-08-07T06:05:51;15.00;99.90
16479;DHT22;8350;52.316;10.530;2023-08-07T06:08:19;15.00;99.90
16479;DHT22;8350;52.316;10.530;2023-08-07T06:10:46;15.00;99.90
16479;DHT22;8350;52.316;10.530;2023-08-07T06:13:13;15.00;99.90
16479;DHT22;8350;52.316;10.530;2023-08-07T06:15:40;15.00;99.90
16479;DHT22;8350;52.316;10.530;2023-08-07T06:18:07;14.90;99.90
16479;DHT22;8350;52.316;10.530;2023-08-07T06:20:34;14.90;99.90
16479;DHT22;8350;52.316;10.530;2023-08-07T06:23:01;14.80;99.90
16479;DHT22;8350;52.316;10.530;2023-08-07T06:25:30;14.80;99.90
16479;DHT22;8350;52.316;10.530;2023-08-07T06:27:57;14.80;99.90
16479;DHT22;8350;52.316;10.530;2023-08-07T06:30:24;14.70;99.90
16479;DHT22;8350;52.316;10.530;2023-08-07T06:32:51;14.70;99.90
16479;DHT22;8350;52.316;10.530;2023-08-07T06:35:17;14.50;99.90
16479;DHT22;8350;52.316;10.530;2023-08-07T06:37:44;14.40;99.90
16479;DHT22;8350;52.316;10.530;2023-08-07T06:40:12;14.40;99.90
16479;DHT22;8350;52.316;10.530;2023-08-07T06:42:40;14.20;99.90
16479;DHT22;8350;52.316;10.530;2023-08-07T06:45:08;14.00;99.90
16479;DHT22;8350;52.316;10.530;2023-08-07T06:47:35;13.90;99.90
16479;DHT22;8350;52.316;10.530;2023-08-07T06:50:02;13.90;99.90
16479;DHT22;8350;52.316;10.530;2023-08-07T06:52:31;14.00;99.90
16479;DHT22;8350;52.316;10.530;2023-08-07T06:54:58;14.00;99.90
16479;DHT22;8350;52.316;10.530;2023-08-07T06:57:25;14.10;99.90
16479;DHT22;8350;52.316;10.530;2023-08-07T06:59:55;14.30;99.90
16479;DHT22;8350;52.316;10.530;2023-08-07T07:02:22;14.30;99.90
16479;DHT22;8350;52.316;10.530;2023-08-07T07:04:49;14.50;99.90
16479;DHT22;8350;52.316;10.530;2023-08-07T07:07:16;14.60;99.90
16479;DHT22;8350;52.316;10.530;2023-08-07T07:09:43;14.80;99.90
16479;DHT22;8350;52.316;10.530;2023-08-07T07:12:10;14.90;99.90
16479;DHT22;8350;52.316;10.530;2023-08-07T07:14:37;14.90;99.90
16479;DHT22;8350;52.316;10.530;2023-08-07T07:17:06;15.00;99.90
16479;DHT22;8350;52.316;10.530;2023-08-07T07:19:32;15.10;99.90
16479;DHT22;8350;52.316;10.530;2023-08-07T07:21:59;15.10;99.90
16479;DHT22;8350;52.316;10.530;2023-08-07T07:24:26;15.00;99.90
16479;DHT22;8350;52.316;10.530;2023-08-07T07:26:53;15.00;99.90
16479;DHT22;8350;52.316;10.530;2023-08-07T07:29:20;15.10;99.90
16479;DHT22;8350;52.316;10.530;2023-08-07T07:31:48;15.10;99.90
16479;DHT22;8350;52.316;10.530;2023-08-07T07:34:17;15.10;99.90
16479;DHT22;8350;52.316;10.530;2023-08-07T07:36:44;15.10;99.90
16479;DHT22;8350;52.316;10.530;2023-08-07T07:39:11;15.20;99.90
16479;DHT22;8350;52.316;10.530;2023-08-07T07:41:38;15.20;99.90
16479;DHT22;8350;52.316;10.530;2023-08-07T07:44:05;15.30;99.90
16479;DHT22;8350;52.316;10.530;2023-08-07T07:46:32;15.50;99.90
16479;DHT22;8350;52.316;10.530;2023-08-07T07:48:59;15.60;99.90
16479;DHT22;8350;52.316;10.530;2023-08-07T07:51:30;15.60;99.90
16479;DHT22;8350;52.316;10.530;2023-08-07T07:53:57;15.70;99.90
16479;DHT22;8350;52.316;10.530;2023-08-07T07:56:24;15.80;99.90
16479;DHT22;8350;52.316;10.530;2023-08-07T07:58:51;15.90;99.90
16479;DHT22;8350;52.316;10.530;2023-08-07T08:01:19;16.00;99.90
16479;DHT22;8350;52.316;10.530;2023-08-07T08:03:46;16.20;99.90
16479;DHT22;8350;52.316;10.530;2023-08-07T08:06:16;16.40;99.90
16479;DHT22;8350;52.316;10.530;2023-08-07T08:08:48;16.40;99.90
16479;DHT22;8350;52.316;10.530;2023-08-07T08:11:15;16.50;99.90
16479;DHT22;8350;52.316;10.530;2023-08-07T08:13:42;16.50;99.90
16479;DHT22;8350;52.316;10.530;2023-08-07T08:16:09;16.60;99.90
16479;DHT22;8350;52.316;10.530;2023-08-07T08:18:36;16.50;99.90
16479;DHT22;8350;52.316;10.530;2023-08-07T08:21:03;16.50;99.90
16479;DHT22;8350;52.316;10.530;2023-08-07T08:23:29;16.50;99.90
16479;DHT22;8350;52.316;10.530;2023-08-07T08:25:58;16.70;99.90
16479;DHT22;8350;52.316;10.530;2023-08-07T08:28:25;16.80;99.90
16479;DHT22;8350;52.316;10.530;2023-08-07T08:30:52;17.00;99.90
16479;DHT22;8350;52.316;10.530;2023-08-07T08:33:19;17.20;99.90
16479;DHT22;8350;52.316;10.530;2023-08-07T08:35:46;17.40;99.90
16479;DHT22;8350;52.316;10.530;2023-08-07T08:38:13;17.50;99.90
16479;DHT22;8350;52.316;10.530;2023-08-07T08:40:42;17.60;99.90
16479;DHT22;8350;52.316;10.530;2023-08-07T08:43:12;17.70;99.90
16479;DHT22;8350;52.316;10.530;2023-08-07T08:45:40;17.60;99.90
16479;DHT22;8350;52.316;10.530;2023-08-07T08:48:08;17.60;99.90
16479;DHT22;8350;52.316;10.530;2023-08-07T08:50:38;17.40;99.90
16479;DHT22;8350;52.316;10.530;2023-08-07T08:53:06;17.30;99.90
16479;DHT22;8350;52.316;10.530;2023-08-07T08:55:34;17.30;99.90
16479;DHT22;8350;52.316;10.530;2023-08-07T08:58:03;17.30;99.90
16479;DHT22;8350;52.316;10.530;2023-08-07T09:00:32;17.20;99.90
16479;DHT22;8350;52.316;10.530;2023-08-07T09:03:00;17.20;99.90
16479;DHT22;8350;52.316;10.530;2023-08-07T09:05:27;17.30;99.90
16479;DHT22;8350;52.316;10.530;2023-08-07T09:07:55;17.50;99.90
16479;DHT22;8350;52.316;10.530;2023-08-07T09:10:23;17.40;99.90
16479;DHT22;8350;52.316;10.530;2023-08-07T09:12:54;17.60;99.90
16479;DHT22;8350;52.316;10.530;2023-08-07T09:15:25;18.00;99.90
16479;DHT22;8350;52.316;10.530;2023-08-07T09:17:54;18.30;99.90
16479;DHT22;8350;52.316;10.530;2023-08-07T09:20:21;18.60;99.90
16479;DHT22;8350;52.316;10.530;2023-08-07T09:22:49;18.80;99.90
16479;DHT22;8350;52.316;10.530;2023-08-07T09:25:27;19.00;99.90
16479;DHT22;8350;52.316;10.530;2023-08-07T09:27:54;18.90;99.90
16479;DHT22;8350;52.316;10.530;2023-08-07T09:30:25;18.70;99.90
16479;DHT22;8350;52.316;10.530;2023-08-07T09:32:53;18.30;99.90
16479;DHT22;8350;52.316;10.530;2023-08-07T09:35:21;17.80;99.90
16479;DHT22;8350;52.316;10.530;2023-08-07T09:37:48;17.60;99.90
16479;DHT22;8350;52.316;10.530;2023-08-07T09:40:15;17.20;99.90
16479;DHT22;8350;52.316;10.530;2023-08-07T09:42:42;16.90;99.90
16479;DHT22;8350;52.316;10.530;2023-08-07T09:45:19;16.70;99.90
16479;DHT22;8350;52.316;10.530;2023-08-07T09:47:56;16.40;99.90
16479;DHT22;8350;52.316;10.530;2023-08-07T09:50:25;16.20;99.90
16479;DHT22;8350;52.316;10.530;2023-08-07T09:52:53;16.00;99.90
16479;DHT22;8350;52.316;10.530;2023-08-07T09:55:20;15.90;99.90
16479;DHT22;8350;52.316;10.530;2023-08-07T09:57:47;15.90;99.90
16479;DHT22;8350;52.316;10.530;2023-08-07T10:00:15;15.80;99.90
16479;DHT22;8350;52.316;10.530;2023-08-07T10:02:46;16.00;99.90
16479;DHT22;8350;52.316;10.530;2023-08-07T10:05:13;16.20;99.90
16479;DHT22;8350;52.316;10.530;2023-08-07T10:07:42;16.40;99.90
16479;DHT22;8350;52.316;10.530;2023-08-07T10:10:10;16.60;99.90
16479;DHT22;8350;52.316;10.530;2023-08-07T10:12:37;16.90;99.90
16479;DHT22;8350;52.316;10.530;2023-08-07T10:15:05;17.30;99.90
16479;DHT22;8350;52.316;10.530;2023-08-07T10:17:34;17.20;99.90
16479;DHT22;8350;52.316;10.530;2023-08-07T10:20:01;17.50;99.90
16479;DHT22;8350;52.316;10.530;2023-08-07T10:22:31;17.70;99.90
16479;DHT22;8350;52.316;10.530;2023-08-07T10:25:02;17.60;99.90
16479;DHT22;8350;52.316;10.530;2023-08-07T10:27:33;17.80;99.90
16479;DHT22;8350;52.316;10.530;2023-08-07T10:30:03;18.00;99.90
16479;DHT22;8350;52.316;10.530;2023-08-07T10:32:32;18.00;99.90
16479;DHT22;8350;52.316;10.530;2023-08-07T10:35:03;18.30;99.90
16479;DHT22;8350;52.316;10.530;2023-08-07T10:37:39;18.50;99.90
16479;DHT22;8350;52.316;10.530;2023-08-07T10:40:08;18.70;99.90
16479;DHT22;8350;52.316;10.530;2023-08-07T10:43:00;18.80;99.90
16479;DHT22;8350;52.316;10.530;2023-08-07T10:45:38;18.50;99.90
16479;DHT22;8350;52.316;10.530;2023-08-07T10:48:10;18.50;99.90
16479;DHT22;8350;52.316;10.530;2023-08-07T10:50:49;18.70;99.90
16479;DHT22;8350;52.316;10.530;2023-08-07T10:53:20;18.70;99.90
16479;DHT22;8350;52.316;10.530;2023-08-07T10:55:49;18.40;99.90
16479;DHT22;8350;52.316;10.530;2023-08-07T10:58:24;18.20;99.90
16479;DHT22;8350;52.316;10.530;2023-08-07T11:00:52;18.10;99.90
16479;DHT22;8350;52.316;10.530;2023-08-07T11:03:28;17.90;99.90
16479;DHT22;8350;52.316;10.530;2023-08-07T11:05:57;17.60;99.90
16479;DHT22;8350;52.316;10.530;2023-08-07T11:08:25;17.30;99.90
16479;DHT22;8350;52.316;10.530;2023-08-07T11:10:53;17.20;99.90
16479;DHT22;8350;52.316;10.530;2023-08-07T11:13:21;16.90;99.90
16479;DHT22;8350;52.316;10.530;2023-08-07T11:15:49;16.70;99.90
16479;DHT22;8350;52.316;10.530;2023-08-07T11:18:16;16.60;99.90
16479;DHT22;8350;52.316;10.530;2023-08-07T11:20:44;16.30;99.90
16479;DHT22;8350;52.316;10.530;2023-08-07T11:23:12;16.10;99.90
16479;DHT22;8350;52.316;10.530;2023-08-07T11:25:39;16.20;99.90
16479;DHT22;8350;52.316;10.530;2023-08-07T11:28:07;16.40;99.90
16479;DHT22;8350;52.316;10.530;2023-08-07T11:30:35;16.40;99.90
16479;DHT22;8350;52.316;10.530;2023-08-07T11:33:02;16.70;99.90
16479;DHT22;8350;52.316;10.530;2023-08-07T11:35:29;17.10;99.90
16479;DHT22;8350;52.316;10.530;2023-08-07T11:37:56;17.30;99.90
16479;DHT22;8350;52.316;10.530;2023-08-07T11:40:23;17.30;99.90
16479;DHT22;8350;52.316;10.530;2023-08-07T11:42:51;17.20;99.90
16479;DHT22;8350;52.316;10.530;2023-08-07T11:45:20;17.30;99.90
16479;DHT22;8350;52.316;10.530;2023-08-07T11:47:47;17.10;99.90
16479;DHT22;8350;52.316;10.530;2023-08-07T11:50:14;16.80;99.90
16479;DHT22;8350;52.316;10.530;2023-08-07T11:52:41;16.70;99.90
16479;DHT22;8350;52.316;10.530;2023-08-07T11:55:10;16.60;99.90
16479;DHT22;8350;52.316;10.530;2023-08-07T11:57:38;16.40;99.90
16479;DHT22;8350;52.316;10.530;2023-08-07T12:00:09;16.50;99.90
16479;DHT22;8350;52.316;10.530;2023-08-07T12:02:42;16.30;99.90
16479;DHT22;8350;52.316;10.530;2023-08-07T12:05:10;16.20;99.90
16479;DHT22;8350;52.316;10.530;2023-08-07T12:07:38;16.10;99.90
16479;DHT22;8350;52.316;10.530;2023-08-07T12:10:07;16.20;99.90
16479;DHT22;8350;52.316;10.530;2023-08-07T12:12:36;16.40;99.90
16479;DHT22;8350;52.316;10.530;2023-08-07T12:15:03;16.60;99.90
16479;DHT22;8350;52.316;10.530;2023-08-07T12:17:33;17.00;99.90
16479;DHT22;8350;52.316;10.530;2023-08-07T12:20:03;17.40;99.90
16479;DHT22;8350;52.316;10.530;2023-08-07T12:22:35;17.60;99.90
16479;DHT22;8350;52.316;10.530;2023-08-07T12:25:03;17.80;99.90
16479;DHT22;8350;52.316;10.530;2023-08-07T12:27:30;17.60;99.90
16479;DHT22;8350;52.316;10.530;2023-08-07T12:29:57;17.30;99.90
16479;DHT22;8350;52.316;10.530;2023-08-07T12:32:27;16.70;99.90
16479;DHT22;8350;52.316;10.530;2023-08-07T12:35:01;16.30;99.90
16479;DHT22;8350;52.316;10.530;2023-08-07T12:37:28;16.30;99.90
16479;DHT22;8350;52.316;10.530;2023-08-07T12:39:58;16.60;99.90
16479;DHT22;8350;52.316;10.530;2023-08-07T12:42:25;17.00;99.90
16479;DHT22;8350;52.316;10.530;2023-08-07T12:44:52;17.30;99.90
16479;DHT22;8350;52.316;10.530;2023-08-07T12:47:19;17.60;99.90
16479;DHT22;8350;52.316;10.530;2023-08-07T12:49:46;17.60;99.90
16479;DHT22;8350;52.316;10.530;2023-08-07T12:52:15;17.60;99.90
16479;DHT22;8350;52.316;10.530;2023-08-07T12:54:42;17.80;99.90
16479;DHT22;8350;52.316;10.530;2023-08-07T12:57:08;17.70;99.90
16479;DHT22;8350;52.316;10.530;2023-08-07T12:59:35;17.60;99.90
16479;DHT22;8350;52.316;10.530;2023-08-07T13:02:03;17.30;99.90
16479;DHT22;8350;52.316;10.530;2023-08-07T13:04:30;17.20;99.90
16479;DHT22;8350;52.316;10.530;2023-08-07T13:06:58;17.10;99.90
16479;DHT22;8350;52.316;10.530;2023-08-07T13:09:29;17.10;99.90
16479;DHT22;8350;52.316;10.530;2023-08-07T13:11:56;17.30;99.90
16479;DHT22;8350;52.316;10.530;2023-08-07T13:14:23;17.50;99.90
16479;DHT22;8350;52.316;10.530;2023-08-07T13:16:50;17.80;99.90
16479;DHT22;8350;52.316;10.530;2023-08-07T13:19:17;18.00;99.90
16479;DHT22;8350;52.316;10.530;2023-08-07T13:21:44;18.10;99.90
16479;DHT22;8350;52.316;10.530;2023-08-07T13:24:11;17.90;99.90
16479;DHT22;8350;52.316;10.530;2023-08-07T13:26:41;18.00;99.90
16479;DHT22;8350;52.316;10.530;2023-08-07T13:29:10;18.10;99.90
16479;DHT22;8350;52.316;10.530;2023-08-07T13:31:37;18.10;99.90
16479;DHT22;8350;52.316;10.530;2023-08-07T13:34:04;18.30;99.90
16479;DHT22;8350;52.316;10.530;2023-08-07T13:36:35;18.30;99.90
16479;DHT22;8350;52.316;10.530;2023-08-07T13:39:03;18.40;99.90
16479;DHT22;8350;52.316;10.530;2023-08-07T13:41:30;18.60;99.90
16479;DHT22;8350;52.316;10.530;2023-08-07T13:43:59;18.60;99.90
16479;DHT22;8350;52.316;10.530;2023-08-07T13:46:26;18.40;99.90
16479;DHT22;8350;52.316;10.530;2023-08-07T13:48:53;18.30;99.90
16479;DHT22;8350;52.316;10.530;2023-08-07T13:51:20;18.20;99.90
16479;DHT22;8350;52.316;10.530;2023-08-07T13:53:47;18.00;99.90
16479;DHT22;8350;52.316;10.530;2023-08-07T13:56:14;17.80;99.90
16479;DHT22;8350;52.316;10.530;2023-08-07T13:58:41;17.70;99.90
16479;DHT22;8350;52.316;10.530;2023-08-07T14:01:10;17.60;99.90
16479;DHT22;8350;52.316;10.530;2023-08-07T14:03:37;17.40;99.90
16479;DHT22;8350;52.316;10.530;2023-08-07T14:06:04;17.40;99.90
16479;DHT22;8350;52.316;10.530;2023-08-07T14:08:33;17.40;99.90
16479;DHT22;8350;52.316;10.530;2023-08-07T14:11:01;17.30;99.90
16479;DHT22;8350;52.316;10.530;2023-08-07T14:13:28;17.20;99.90
16479;DHT22;8350;52.316;10.530;2023-08-07T14:15:55;17.20;99.90
16479;DHT22;8350;52.316;10.530;2023-08-07T14:18:23;17.30;99.90
16479;DHT22;8350;52.316;10.530;2023-08-07T14:20:50;17.40;99.90
16479;DHT22;8350;52.316;10.530;2023-08-07T14:23:19;17.60;99.90
16479;DHT22;8350;52.316;10.530;2023-08-07T14:25:48;17.80;99.90
16479;DHT22;8350;52.316;10.530;2023-08-07T14:28:16;17.80;99.90
16479;DHT22;8350;52.316;10.530;2023-08-07T14:30:43;17.80;99.90
16479;DHT22;8350;52.316;10.530;2023-08-07T14:33:13;17.80;99.90
16479;DHT22;8350;52.316;10.530;2023-08-07T14:35:41;18.00;99.90
16479;DHT22;8350;52.316;10.530;2023-08-07T14:38:08;18.20;99.90
16479;DHT22;8350;52.316;10.530;2023-08-07T14:40:35;18.20;99.90
16479;DHT22;8350;52.316;10.530;2023-08-07T14:43:12;18.20;99.90
16479;DHT22;8350;52.316;10.530;2023-08-07T14:45:40;18.10;99.90
16479;DHT22;8350;52.316;10.530;2023-08-07T14:48:07;18.10;99.90
16479;DHT22;8350;52.316;10.530;2023-08-07T14:50:36;18.00;99.90
16479;DHT22;8350;52.316;10.530;2023-08-07T14:53:07;18.00;99.90
16479;DHT22;8350;52.316;10.530;2023-08-07T14:55:34;17.70;99.90
16479;DHT22;8350;52.316;10.530;2023-08-07T14:58:01;17.60;99.90
16479;DHT22;8350;52.316;10.530;2023-08-07T15:00:28;17.50;99.90
16479;DHT22;8350;52.316;10.530;2023-08-07T15:02:56;17.50;99.90
16479;DHT22;8350;52.316;10.530;2023-08-07T15:05:24;17.50;99.90
16479;DHT22;8350;52.316;10.530;2023-08-07T15:07:51;17.50;99.90
16479;DHT22;8350;52.316;10.530;2023-08-07T15:10:20;17.70;99.90
16479;DHT22;8350;52.316;10.530;2023-08-07T15:12:47;18.00;99.90
16479;DHT22;8350;52.316;10.530;2023-08-07T15:15:14;18.20;99.90
16479;DHT22;8350;52.316;10.530;2023-08-07T15:17:41;18.40;99.90
16479;DHT22;8350;52.316;10.530;2023-08-07T15:20:09;18.50;99.90
16479;DHT22;8350;52.316;10.530;2023-08-07T15:22:36;18.50;99.90
16479;DHT22;8350;52.316;10.530;2023-08-07T15:25:03;18.60;99.90
16479;DHT22;8350;52.316;10.530;2023-08-07T15:27:32;18.50;99.90
16479;DHT22;8350;52.316;10.530;2023-08-07T15:30:06;18.60;99.90
16479;DHT22;8350;52.316;10.530;2023-08-07T15:32:34;18.70;99.90
16479;DHT22;8350;52.316;10.530;2023-08-07T15:35:01;18.80;99.90
16479;DHT22;8350;52.316;10.530;2023-08-07T15:37:27;18.60;99.90